sensor_id;sensor_type;location;lat;lon;timestamp;P1;durP1;ratioP1;P2;durP2;ratioP2
29200;SDS011;16244;51.956;12.980;2023-10-09T00:00:25;51.43;;;47.10;;
29200;SDS011;16244;51.956;12.980;2023-10-09T00:03:11;73.23;;;66.13;;
29200;SDS011;16244;51.956;12.980;2023-10-09T00:05:38;83.00;;;73.97;;
29200;SDS011;16244;51.956;12.980;2023-10-09T00:08:11;89.90;;;81.20;;
29200;SDS011;16244;51.956;12.980;2023-10-09T00:10:42;98.93;;;89.27;;
29200;SDS011;16244;51.956;12.980;2023-10-09T00:13:18;94.63;;;85.77;;
29200;SDS011;16244;51.956;12.980;2023-10-09T00:15:54;62.17;;;55.90;;
29200;SDS011;16244;51.956;12.980;2023-10-09T00:18:27;60.33;;;53.70;;
29200;SDS011;16244;51.956;12.980;2023-10-09T00:20:59;63.00;;;57.63;;
29200;SDS011;16244;51.956;12.980;2023-10-09T00:23:37;85.20;;;76.87;;
29200;SDS011;16244;51.956;12.980;2023-10-09T00:26:04;69.10;;;62.60;;
29200;SDS011;16244;51.956;12.980;2023-10-09T00:28:35;96.23;;;86.83;;
29200;SDS011;16244;51.956;12.980;2023-10-09T00:31:04;96.33;;;87.30;;
29200;SDS011;16244;51.956;12.980;2023-10-09T00:33:34;77.83;;;70.27;;
29200;SDS011;16244;51.956;12.980;2023-10-09T00:36:02;35.27;;;32.40;;
29200;SDS011;16244;51.956;12.980;2023-10-09T00:38:35;93.40;;;84.63;;
29200;SDS011;16244;51.956;12.980;2023-10-09T00:41:11;109.13;;;98.43;;
29200;SDS011;16244;51.956;12.980;2023-10-09T00:43:45;100.23;;;91.40;;
29200;SDS011;16244;51.956;12.980;2023-10-09T00:46:17;94.97;;;86.20;;
29200;SDS011;16244;51.956;12.980;2023-10-09T00:48:52;135.07;;;122.03;;
29200;SDS011;16244;51.956;12.980;2023-10-09T00:51:21;128.90;;;116.17;;
29200;SDS011;16244;51.956;12.980;2023-10-09T00:53:51;35.67;;;32.87;;
29200;SDS011;16244;51.956;12.980;2023-10-09T00:56:21;77.27;;;69.73;;
29200;SDS011;16244;51.956;12.980;2023-10-09T00:59:03;89.83;;;81.37;;
29200;SDS011;16244;51.956;12.980;2023-10-09T01:01:41;47.63;;;43.47;;
29200;SDS011;16244;51.956;12.980;2023-10-09T01:04:21;125.67;;;113.23;;
29200;SDS011;16244;51.956;12.980;2023-10-09T01:06:51;126.77;;;113.63;;
29200;SDS011;16244;51.956;12.980;2023-10-09T01:09:31;124.03;;;109.80;;
29200;SDS011;16244;51.956;12.980;2023-10-09T01:12:04;43.03;;;38.93;;
29200;SDS011;16244;51.956;12.980;2023-10-09T01:14:32;45.80;;;41.73;;
29200;SDS011;16244;51.956;12.980;2023-10-09T01:17:03;78.87;;;70.73;;
29200;SDS011;16244;51.956;12.980;2023-10-09T01:19:34;123.60;;;112.00;;
29200;SDS011;16244;51.956;12.980;2023-10-09T01:22:02;103.83;;;95.37;;
29200;SDS011;16244;51.956;12.980;2023-10-09T01:24:39;94.33;;;85.10;;
29200;SDS011;16244;51.956;12.980;2023-10-09T01:27:07;93.77;;;84.13;;
29200;SDS011;16244;51.956;12.980;2023-10-09T01:29:40;107.40;;;97.10;;
29200;SDS011;16244;51.956;12.980;2023-10-09T01:32:09;105.00;;;94.00;;
29200;SDS011;16244;51.956;12.980;2023-10-09T01:34:42;103.43;;;93.77;;
29200;SDS011;16244;51.956;12.980;2023-10-09T01:37:12;133.50;;;121.20;;
29200;SDS011;16244;51.956;12.980;2023-10-09T01:39:45;117.03;;;106.07;;
29200;SDS011;16244;51.956;12.980;2023-10-09T01:42:15;123.77;;;112.57;;
29200;SDS011;16244;51.956;12.980;2023-10-09T01:44:53;61.20;;;56.13;;
29200;SDS011;16244;51.956;12.980;2023-10-09T01:47:21;59.13;;;54.57;;
29200;SDS011;16244;51.956;12.980;2023-10-09T01:49:49;136.83;;;122.83;;
29200;SDS011;16244;51.956;12.980;2023-10-09T01:52:18;97.30;;;87.93;;
29200;SDS011;16244;51.956;12.980;2023-10-09T01:54:50;79.57;;;72.27;;
29200;SDS011;16244;51.956;12.980;2023-10-09T01:57:19;111.90;;;100.10;;
29200;SDS011;16244;51.956;12.980;2023-10-09T01:59:49;129.33;;;116.60;;
29200;SDS011;16244;51.956;12.980;2023-10-09T02:02:19;46.30;;;42.67;;
29200;SDS011;16244;51.956;12.980;2023-10-09T02:04:57;119.10;;;107.77;;
29200;SDS011;16244;51.956;12.980;2023-10-09T02:07:49;80.97;;;74.20;;
29200;SDS011;16244;51.956;12.980;2023-10-09T02:10:19;163.40;;;147.30;;
29200;SDS011;16244;51.956;12.980;2023-10-09T02:12:51;118.90;;;108.40;;
29200;SDS011;16244;51.956;12.980;2023-10-09T02:15:23;74.20;;;68.03;;
29200;SDS011;16244;51.956;12.980;2023-10-09T02:18:05;63.73;;;58.60;;
29200;SDS011;16244;51.956;12.980;2023-10-09T02:20:42;117.07;;;106.67;;
29200;SDS011;16244;51.956;12.980;2023-10-09T02:23:12;109.20;;;98.70;;
29200;SDS011;16244;51.956;12.980;2023-10-09T02:25:41;122.93;;;111.50;;
29200;SDS011;16244;51.956;12.980;2023-10-09T02:28:09;50.97;;;46.37;;
29200;SDS011;16244;51.956;12.980;2023-10-09T02:30:43;78.73;;;72.93;;
29200;SDS011;16244;51.956;12.980;2023-10-09T02:33:13;106.27;;;96.43;;
29200;SDS011;16244;51.956;12.980;2023-10-09T02:35:44;103.27;;;94.07;;
29200;SDS011;16244;51.956;12.980;2023-10-09T02:38:17;99.37;;;89.40;;
29200;SDS011;16244;51.956;12.980;2023-10-09T02:40:50;100.93;;;91.47;;
29200;SDS011;16244;51.956;12.980;2023-10-09T02:43:46;98.07;;;88.77;;
29200;SDS011;16244;51.956;12.980;2023-10-09T02:46:16;89.53;;;81.07;;
29200;SDS011;16244;51.956;12.980;2023-10-09T02:48:46;110.37;;;99.03;;
29200;SDS011;16244;51.956;12.980;2023-10-09T02:51:17;82.07;;;73.80;;
29200;SDS011;16244;51.956;12.980;2023-10-09T02:53:58;72.90;;;65.20;;
29200;SDS011;16244;51.956;12.980;2023-10-09T02:56:36;71.17;;;63.40;;
29200;SDS011;16244;51.956;12.980;2023-10-09T02:59:08;105.50;;;94.70;;
29200;SDS011;16244;51.956;12.980;2023-10-09T03:01:38;110.40;;;99.73;;
29200;SDS011;16244;51.956;12.980;2023-10-09T03:04:06;36.50;;;33.33;;
29200;SDS011;16244;51.956;12.980;2023-10-09T03:06:36;78.17;;;70.73;;
29200;SDS011;16244;51.956;12.980;2023-10-09T03:09:09;132.83;;;119.33;;
29200;SDS011;16244;51.956;12.980;2023-10-09T03:11:45;44.00;;;40.80;;
29200;SDS011;16244;51.956;12.980;2023-10-09T03:14:14;132.70;;;120.53;;
29200;SDS011;16244;51.956;12.980;2023-10-09T03:16:42;155.83;;;141.70;;
29200;SDS011;16244;51.956;12.980;2023-10-09T03:19:10;39.13;;;35.97;;
29200;SDS011;16244;51.956;12.980;2023-10-09T03:21:39;111.47;;;100.07;;
29200;SDS011;16244;51.956;12.980;2023-10-09T03:24:07;80.03;;;71.40;;
29200;SDS011;16244;51.956;12.980;2023-10-09T03:26:35;75.90;;;69.53;;
29200;SDS011;16244;51.956;12.980;2023-10-09T03:29:04;73.27;;;66.00;;
29200;SDS011;16244;51.956;12.980;2023-10-09T03:31:35;117.20;;;105.87;;
29200;SDS011;16244;51.956;12.980;2023-10-09T03:34:04;133.53;;;120.93;;
29200;SDS011;16244;51.956;12.980;2023-10-09T03:36:32;80.57;;;74.17;;
29200;SDS011;16244;51.956;12.980;2023-10-09T03:39:04;126.77;;;115.30;;
29200;SDS011;16244;51.956;12.980;2023-10-09T03:41:44;143.40;;;130.13;;
29200;SDS011;16244;51.956;12.980;2023-10-09T03:44:14;122.17;;;112.70;;
29200;SDS011;16244;51.956;12.980;2023-10-09T03:46:44;129.47;;;119.40;;
29200;SDS011;16244;51.956;12.980;2023-10-09T03:49:12;125.80;;;113.63;;
29200;SDS011;16244;51.956;12.980;2023-10-09T03:51:46;123.70;;;113.33;;
29200;SDS011;16244;51.956;12.980;2023-10-09T03:54:13;161.57;;;146.63;;
29200;SDS011;16244;51.956;12.980;2023-10-09T03:56:41;142.83;;;129.30;;
29200;SDS011;16244;51.956;12.980;2023-10-09T03:59:09;97.60;;;89.67;;
29200;SDS011;16244;51.956;12.980;2023-10-09T04:01:38;72.13;;;66.47;;
29200;SDS011;16244;51.956;12.980;2023-10-09T04:04:05;158.53;;;143.53;;
29200;SDS011;16244;51.956;12.980;2023-10-09T04:06:36;72.37;;;66.90;;
29200;SDS011;16244;51.956;12.980;2023-10-09T04:09:04;84.60;;;77.87;;
29200;SDS011;16244;51.956;12.980;2023-10-09T04:11:53;112.23;;;101.27;;
29200;SDS011;16244;51.956;12.980;2023-10-09T04:14:39;135.17;;;122.80;;
29200;SDS011;16244;51.956;12.980;2023-10-09T04:17:16;114.57;;;103.50;;
29200;SDS011;16244;51.956;12.980;2023-10-09T04:20:00;119.13;;;108.43;;
29200;SDS011;16244;51.956;12.980;2023-10-09T04:22:45;107.83;;;98.37;;
29200;SDS011;16244;51.956;12.980;2023-10-09T04:25:17;155.20;;;140.97;;
29200;SDS011;16244;51.956;12.980;2023-10-09T04:27:51;50.57;;;46.90;;
29200;SDS011;16244;51.956;12.980;2023-10-09T04:30:26;45.03;;;41.13;;
29200;SDS011;16244;51.956;12.980;2023-10-09T04:32:54;96.83;;;87.47;;
29200;SDS011;16244;51.956;12.980;2023-10-09T04:35:30;99.60;;;90.07;;
29200;SDS011;16244;51.956;12.980;2023-10-09T04:37:59;48.93;;;45.10;;
29200;SDS011;16244;51.956;12.980;2023-10-09T04:40:31;89.43;;;80.93;;
29200;SDS011;16244;51.956;12.980;2023-10-09T04:43:15;81.40;;;74.43;;
29200;SDS011;16244;51.956;12.980;2023-10-09T04:45:47;101.23;;;91.30;;
29200;SDS011;16244;51.956;12.980;2023-10-09T04:48:33;63.20;;;58.37;;
29200;SDS011;16244;51.956;12.980;2023-10-09T04:51:04;52.57;;;48.60;;
29200;SDS011;16244;51.956;12.980;2023-10-09T04:53:46;56.77;;;52.30;;
29200;SDS011;16244;51.956;12.980;2023-10-09T04:56:20;36.30;;;33.37;;
29200;SDS011;16244;51.956;12.980;2023-10-09T04:58:50;103.57;;;93.70;;
29200;SDS011;16244;51.956;12.980;2023-10-09T05:01:29;107.43;;;99.20;;
29200;SDS011;16244;51.956;12.980;2023-10-09T05:04:11;178.23;;;162.43;;
29200;SDS011;16244;51.956;12.980;2023-10-09T05:06:55;173.50;;;158.33;;
29200;SDS011;16244;51.956;12.980;2023-10-09T05:09:23;194.43;;;177.30;;
29200;SDS011;16244;51.956;12.980;2023-10-09T05:11:50;135.63;;;123.40;;
29200;SDS011;16244;51.956;12.980;2023-10-09T05:14:22;85.07;;;77.90;;
29200;SDS011;16244;51.956;12.980;2023-10-09T05:17:05;98.43;;;90.80;;
29200;SDS011;16244;51.956;12.980;2023-10-09T05:19:36;107.57;;;97.67;;
29200;SDS011;16244;51.956;12.980;2023-10-09T05:22:20;82.17;;;75.43;;
29200;SDS011;16244;51.956;12.980;2023-10-09T05:25:02;130.87;;;119.90;;
29200;SDS011;16244;51.956;12.980;2023-10-09T05:27:41;112.23;;;103.03;;
29200;SDS011;16244;51.956;12.980;2023-10-09T05:30:16;144.53;;;133.07;;
29200;SDS011;16244;51.956;12.980;2023-10-09T05:32:53;192.33;;;173.33;;
29200;SDS011;16244;51.956;12.980;2023-10-09T05:35:48;195.30;;;178.50;;
29200;SDS011;16244;51.956;12.980;2023-10-09T05:38:32;283.10;;;258.10;;
29200;SDS011;16244;51.956;12.980;2023-10-09T05:41:02;208.13;;;192.57;;
29200;SDS011;16244;51.956;12.980;2023-10-09T05:43:50;310.13;;;284.17;;
29200;SDS011;16244;51.956;12.980;2023-10-09T05:46:35;380.07;;;345.73;;
29200;SDS011;16244;51.956;12.980;2023-10-09T05:49:03;245.97;;;225.20;;
29200;SDS011;16244;51.956;12.980;2023-10-09T05:51:46;276.07;;;252.57;;
29200;SDS011;16244;51.956;12.980;2023-10-09T05:54:39;318.40;;;290.37;;
29200;SDS011;16244;51.956;12.980;2023-10-09T05:57:46;321.20;;;294.17;;
29200;SDS011;16244;51.956;12.980;2023-10-09T06:00:31;308.77;;;278.70;;
29200;SDS011;16244;51.956;12.980;2023-10-09T06:03:17;326.07;;;298.10;;
29200;SDS011;16244;51.956;12.980;2023-10-09T06:05:51;393.07;;;356.60;;
29200;SDS011;16244;51.956;12.980;2023-10-09T06:08:31;373.00;;;337.40;;
29200;SDS011;16244;51.956;12.980;2023-10-09T06:11:34;409.83;;;373.93;;
29200;SDS011;16244;51.956;12.980;2023-10-09T06:14:08;337.27;;;306.83;;
29200;SDS011;16244;51.956;12.980;2023-10-09T06:16:40;199.90;;;182.70;;
29200;SDS011;16244;51.956;12.980;2023-10-09T06:19:08;220.67;;;202.30;;
29200;SDS011;16244;51.956;12.980;2023-10-09T06:21:38;206.73;;;188.50;;
29200;SDS011;16244;51.956;12.980;2023-10-09T06:24:07;238.47;;;219.40;;
29200;SDS011;16244;51.956;12.980;2023-10-09T06:26:42;376.93;;;344.87;;
29200;SDS011;16244;51.956;12.980;2023-10-09T06:29:34;228.10;;;209.27;;
29200;SDS011;16244;51.956;12.980;2023-10-09T06:32:04;313.23;;;285.20;;
29200;SDS011;16244;51.956;12.980;2023-10-09T06:35:00;328.17;;;299.10;;
29200;SDS011;16244;51.956;12.980;2023-10-09T06:37:44;298.33;;;272.07;;
29200;SDS011;16244;51.956;12.980;2023-10-09T06:40:32;249.83;;;229.27;;
29200;SDS011;16244;51.956;12.980;2023-10-09T06:43:19;330.83;;;300.07;;
29200;SDS011;16244;51.956;12.980;2023-10-09T06:45:54;256.67;;;232.67;;
29200;SDS011;16244;51.956;12.980;2023-10-09T06:48:43;252.03;;;229.63;;
29200;SDS011;16244;51.956;12.980;2023-10-09T06:51:22;184.13;;;169.33;;
29200;SDS011;16244;51.956;12.980;2023-10-09T06:54:06;217.33;;;198.33;;
29200;SDS011;16244;51.956;12.980;2023-10-09T06:56:45;256.97;;;235.17;;
29200;SDS011;16244;51.956;12.980;2023-10-09T06:59:30;317.80;;;289.47;;
29200;SDS011;16244;51.956;12.980;2023-10-09T07:02:28;266.23;;;244.57;;
29200;SDS011;16244;51.956;12.980;2023-10-09T07:04:57;185.10;;;169.30;;
29200;SDS011;16244;51.956;12.980;2023-10-09T07:07:36;181.87;;;165.97;;
29200;SDS011;16244;51.956;12.980;2023-10-09T07:10:16;175.60;;;162.60;;
29200;SDS011;16244;51.956;12.980;2023-10-09T07:13:00;176.70;;;163.17;;
29200;SDS011;16244;51.956;12.980;2023-10-09T07:15:28;181.23;;;165.47;;
29200;SDS011;16244;51.956;12.980;2023-10-09T07:18:13;136.63;;;125.27;;
29200;SDS011;16244;51.956;12.980;2023-10-09T07:20:49;104.77;;;96.37;;
29200;SDS011;16244;51.956;12.980;2023-10-09T07:23:37;118.07;;;108.87;;
29200;SDS011;16244;51.956;12.980;2023-10-09T07:26:14;96.13;;;88.43;;
29200;SDS011;16244;51.956;12.980;2023-10-09T07:28:50;74.53;;;68.37;;
29200;SDS011;16244;51.956;12.980;2023-10-09T07:31:27;121.43;;;109.10;;
29200;SDS011;16244;51.956;12.980;2023-10-09T07:33:55;74.20;;;67.73;;
29200;SDS011;16244;51.956;12.980;2023-10-09T07:36:25;80.50;;;74.33;;
29200;SDS011;16244;51.956;12.980;2023-10-09T07:39:03;130.30;;;119.53;;
29200;SDS011;16244;51.956;12.980;2023-10-09T07:41:39;117.57;;;107.97;;
29200;SDS011;16244;51.956;12.980;2023-10-09T07:44:22;166.40;;;152.40;;
29200;SDS011;16244;51.956;12.980;2023-10-09T07:47:03;187.13;;;172.30;;
29200;SDS011;16244;51.956;12.980;2023-10-09T07:49:43;174.87;;;160.50;;
29200;SDS011;16244;51.956;12.980;2023-10-09T07:52:20;171.80;;;158.30;;
29200;SDS011;16244;51.956;12.980;2023-10-09T07:54:49;86.80;;;79.80;;
29200;SDS011;16244;51.956;12.980;2023-10-09T07:57:19;87.03;;;79.70;;
29200;SDS011;16244;51.956;12.980;2023-10-09T07:59:56;104.27;;;95.87;;
29200;SDS011;16244;51.956;12.980;2023-10-09T08:02:38;192.40;;;175.13;;
29200;SDS011;16244;51.956;12.980;2023-10-09T08:05:06;73.07;;;67.00;;
29200;SDS011;16244;51.956;12.980;2023-10-09T08:07:45;113.63;;;105.10;;
29200;SDS011;16244;51.956;12.980;2023-10-09T08:10:23;106.00;;;97.63;;
29200;SDS011;16244;51.956;12.980;2023-10-09T08:13:07;191.07;;;172.17;;
29200;SDS011;16244;51.956;12.980;2023-10-09T08:16:02;144.03;;;130.60;;
29200;SDS011;16244;51.956;12.980;2023-10-09T08:18:30;63.57;;;58.30;;
29200;SDS011;16244;51.956;12.980;2023-10-09T08:20:57;72.23;;;66.33;;
29200;SDS011;16244;51.956;12.980;2023-10-09T08:23:42;171.97;;;155.20;;
29200;SDS011;16244;51.956;12.980;2023-10-09T08:26:16;166.50;;;151.13;;
29200;SDS011;16244;51.956;12.980;2023-10-09T08:28:54;123.77;;;111.80;;
29200;SDS011;16244;51.956;12.980;2023-10-09T08:31:43;69.27;;;63.23;;
29200;SDS011;16244;51.956;12.980;2023-10-09T08:34:12;96.27;;;86.90;;
29200;SDS011;16244;51.956;12.980;2023-10-09T08:36:53;96.40;;;87.27;;
29200;SDS011;16244;51.956;12.980;2023-10-09T08:39:20;100.17;;;89.93;;
29200;SDS011;16244;51.956;12.980;2023-10-09T08:41:53;97.73;;;88.53;;
29200;SDS011;16244;51.956;12.980;2023-10-09T08:44:24;125.83;;;113.50;;
29200;SDS011;16244;51.956;12.980;2023-10-09T08:46:56;127.53;;;115.90;;
29200;SDS011;16244;51.956;12.980;2023-10-09T08:49:25;49.73;;;45.70;;
29200;SDS011;16244;51.956;12.980;2023-10-09T08:51:53;95.20;;;86.13;;
29200;SDS011;16244;51.956;12.980;2023-10-09T08:54:21;50.47;;;46.43;;
29200;SDS011;16244;51.956;12.980;2023-10-09T08:56:48;95.63;;;86.13;;
29200;SDS011;16244;51.956;12.980;2023-10-09T08:59:16;51.73;;;47.63;;
29200;SDS011;16244;51.956;12.980;2023-10-09T09:01:45;92.17;;;83.70;;
29200;SDS011;16244;51.956;12.980;2023-10-09T09:04:34;90.00;;;80.97;;
29200;SDS011;16244;51.956;12.980;2023-10-09T09:07:04;62.90;;;57.03;;
29200;SDS011;16244;51.956;12.980;2023-10-09T09:09:32;70.93;;;63.60;;
29200;SDS011;16244;51.956;12.980;2023-10-09T09:12:00;81.80;;;73.73;;
29200;SDS011;16244;51.956;12.980;2023-10-09T09:14:37;89.97;;;80.47;;
29200;SDS011;16244;51.956;12.980;2023-10-09T09:17:05;54.37;;;50.40;;
29200;SDS011;16244;51.956;12.980;2023-10-09T09:19:38;93.03;;;84.80;;
29200;SDS011;16244;51.956;12.980;2023-10-09T09:22:05;93.90;;;83.87;;
29200;SDS011;16244;51.956;12.980;2023-10-09T09:24:40;69.97;;;63.43;;
29200;SDS011;16244;51.956;12.980;2023-10-09T09:27:18;75.13;;;68.20;;
29200;SDS011;16244;51.956;12.980;2023-10-09T09:29:46;79.53;;;71.47;;
29200;SDS011;16244;51.956;12.980;2023-10-09T09:32:28;35.17;;;32.67;;
29200;SDS011;16244;51.956;12.980;2023-10-09T09:35:02;75.87;;;68.43;;
29200;SDS011;16244;51.956;12.980;2023-10-09T09:37:31;67.93;;;61.33;;
29200;SDS011;16244;51.956;12.980;2023-10-09T09:40:06;100.67;;;90.17;;
29200;SDS011;16244;51.956;12.980;2023-10-09T09:42:41;109.23;;;98.70;;
29200;SDS011;16244;51.956;12.980;2023-10-09T09:45:14;32.83;;;30.47;;
29200;SDS011;16244;51.956;12.980;2023-10-09T09:47:43;85.60;;;77.80;;
29200;SDS011;16244;51.956;12.980;2023-10-09T09:50:19;84.80;;;77.43;;
29200;SDS011;16244;51.956;12.980;2023-10-09T09:52:50;69.57;;;63.17;;
29200;SDS011;16244;51.956;12.980;2023-10-09T09:55:31;68.97;;;62.67;;
29200;SDS011;16244;51.956;12.980;2023-10-09T09:58:02;106.10;;;96.30;;
29200;SDS011;16244;51.956;12.980;2023-10-09T10:00:33;93.40;;;84.43;;
29200;SDS011;16244;51.956;12.980;2023-10-09T10:03:11;70.50;;;63.90;;
29200;SDS011;16244;51.956;12.980;2023-10-09T10:05:49;92.10;;;82.90;;
29200;SDS011;16244;51.956;12.980;2023-10-09T10:08:19;64.27;;;58.47;;
29200;SDS011;16244;51.956;12.980;2023-10-09T10:10:47;96.57;;;87.23;;
29200;SDS011;16244;51.956;12.980;2023-10-09T10:13:21;63.63;;;57.33;;
29200;SDS011;16244;51.956;12.980;2023-10-09T10:16:30;89.67;;;82.27;;
29200;SDS011;16244;51.956;12.980;2023-10-09T10:19:01;91.80;;;82.30;;
29200;SDS011;16244;51.956;12.980;2023-10-09T10:21:48;68.73;;;62.13;;
29200;SDS011;16244;51.956;12.980;2023-10-09T10:27:20;67.43;;;61.10;;
29200;SDS011;16244;51.956;12.980;2023-10-09T10:33:09;77.73;;;70.50;;
29200;SDS011;16244;51.956;12.980;2023-10-09T10:35:38;69.27;;;62.33;;
29200;SDS011;16244;51.956;12.980;2023-10-09T10:38:23;74.00;;;67.20;;
29200;SDS011;16244;51.956;12.980;2023-10-09T10:41:12;77.10;;;70.60;;
29200;SDS011;16244;51.956;12.980;2023-10-09T10:43:43;70.97;;;64.67;;
29200;SDS011;16244;51.956;12.980;2023-10-09T10:46:46;76.17;;;68.57;;
29200;SDS011;16244;51.956;12.980;2023-10-09T10:49:18;74.73;;;67.33;;
29200;SDS011;16244;51.956;12.980;2023-10-09T10:51:52;65.93;;;59.00;;
29200;SDS011;16244;51.956;12.980;2023-10-09T10:54:28;66.43;;;58.80;;
29200;SDS011;16244;51.956;12.980;2023-10-09T10:57:13;63.20;;;56.67;;
29200;SDS011;16244;51.956;12.980;2023-10-09T10:59:54;63.60;;;56.70;;
29200;SDS011;16244;51.956;12.980;2023-10-09T11:02:39;91.70;;;83.33;;
29200;SDS011;16244;51.956;12.980;2023-10-09T11:05:09;95.13;;;84.70;;
29200;SDS011;16244;51.956;12.980;2023-10-09T11:07:50;96.17;;;85.93;;
29200;SDS011;16244;51.956;12.980;2023-10-09T11:10:23;83.33;;;75.80;;
29200;SDS011;16244;51.956;12.980;2023-10-09T11:12:57;72.27;;;65.63;;
29200;SDS011;16244;51.956;12.980;2023-10-09T11:15:42;84.13;;;75.87;;
29200;SDS011;16244;51.956;12.980;2023-10-09T11:18:22;66.73;;;60.00;;
29200;SDS011;16244;51.956;12.980;2023-10-09T11:20:53;97.77;;;87.67;;
29200;SDS011;16244;51.956;12.980;2023-10-09T11:23:43;62.20;;;56.20;;
29200;SDS011;16244;51.956;12.980;2023-10-09T11:26:25;60.00;;;53.90;;
29200;SDS011;16244;51.956;12.980;2023-10-09T11:29:06;66.97;;;60.67;;
29200;SDS011;16244;51.956;12.980;2023-10-09T11:31:41;70.07;;;62.87;;
29200;SDS011;16244;51.956;12.980;2023-10-09T11:34:17;60.07;;;53.73;;
29200;SDS011;16244;51.956;12.980;2023-10-09T11:36:55;58.77;;;52.67;;
29200;SDS011;16244;51.956;12.980;2023-10-09T11:39:25;68.13;;;61.70;;
29200;SDS011;16244;51.956;12.980;2023-10-09T11:42:03;56.47;;;50.87;;
29200;SDS011;16244;51.956;12.980;2023-10-09T11:44:35;51.50;;;46.87;;
29200;SDS011;16244;51.956;12.980;2023-10-09T11:47:05;49.93;;;44.63;;
29200;SDS011;16244;51.956;12.980;2023-10-09T11:49:50;94.17;;;85.50;;
29200;SDS011;16244;51.956;12.980;2023-10-09T11:52:29;61.60;;;56.47;;
29200;SDS011;16244;51.956;12.980;2023-10-09T11:55:02;73.73;;;65.83;;
29200;SDS011;16244;51.956;12.980;2023-10-09T11:57:30;79.90;;;71.63;;
29200;SDS011;16244;51.956;12.980;2023-10-09T11:59:57;59.30;;;49.00;;
29200;SDS011;16244;51.956;12.980;2023-10-09T12:02:26;54.63;;;49.70;;
29200;SDS011;16244;51.956;12.980;2023-10-09T12:04:54;66.13;;;59.40;;
29200;SDS011;16244;51.956;12.980;2023-10-09T12:07:23;59.87;;;53.97;;
29200;SDS011;16244;51.956;12.980;2023-10-09T12:09:51;70.67;;;64.13;;
29200;SDS011;16244;51.956;12.980;2023-10-09T12:12:22;58.33;;;53.13;;
29200;SDS011;16244;51.956;12.980;2023-10-09T12:14:53;60.77;;;49.93;;
29200;SDS011;16244;51.956;12.980;2023-10-09T12:17:21;47.73;;;43.07;;
29200;SDS011;16244;51.956;12.980;2023-10-09T12:19:51;57.23;;;50.97;;
29200;SDS011;16244;51.956;12.980;2023-10-09T12:22:19;61.10;;;54.97;;
29200;SDS011;16244;51.956;12.980;2023-10-09T12:24:47;52.53;;;46.17;;
29200;SDS011;16244;51.956;12.980;2023-10-09T12:27:14;83.77;;;73.07;;
29200;SDS011;16244;51.956;12.980;2023-10-09T12:29:46;82.03;;;74.13;;
29200;SDS011;16244;51.956;12.980;2023-10-09T12:32:15;53.70;;;47.90;;
29200;SDS011;16244;51.956;12.980;2023-10-09T12:34:46;51.50;;;46.20;;
29200;SDS011;16244;51.956;12.980;2023-10-09T12:37:16;51.73;;;42.00;;
29200;SDS011;16244;51.956;12.980;2023-10-09T12:39:46;46.63;;;39.90;;
29200;SDS011;16244;51.956;12.980;2023-10-09T12:42:14;44.87;;;40.37;;
29200;SDS011;16244;51.956;12.980;2023-10-09T12:44:42;56.93;;;50.03;;
29200;SDS011;16244;51.956;12.980;2023-10-09T12:47:10;70.23;;;63.53;;
29200;SDS011;16244;51.956;12.980;2023-10-09T12:49:39;51.60;;;44.47;;
29200;SDS011;16244;51.956;12.980;2023-10-09T12:52:07;64.00;;;57.57;;
29200;SDS011;16244;51.956;12.980;2023-10-09T12:54:41;72.37;;;65.33;;
29200;SDS011;16244;51.956;12.980;2023-10-09T12:57:12;71.23;;;64.80;;
29200;SDS011;16244;51.956;12.980;2023-10-09T12:59:40;49.20;;;44.00;;
29200;SDS011;16244;51.956;12.980;2023-10-09T13:02:11;68.40;;;62.47;;
29200;SDS011;16244;51.956;12.980;2023-10-09T13:04:55;50.33;;;45.13;;
29200;SDS011;16244;51.956;12.980;2023-10-09T13:07:23;81.03;;;72.23;;
29200;SDS011;16244;51.956;12.980;2023-10-09T13:09:51;58.93;;;53.90;;
29200;SDS011;16244;51.956;12.980;2023-10-09T13:12:32;78.70;;;71.20;;
29200;SDS011;16244;51.956;12.980;2023-10-09T13:15:04;75.50;;;68.17;;
29200;SDS011;16244;51.956;12.980;2023-10-09T13:17:35;74.93;;;68.27;;
29200;SDS011;16244;51.956;12.980;2023-10-09T13:20:05;46.47;;;41.17;;
29200;SDS011;16244;51.956;12.980;2023-10-09T13:22:38;45.90;;;40.27;;
29200;SDS011;16244;51.956;12.980;2023-10-09T13:25:07;51.97;;;46.53;;
29200;SDS011;16244;51.956;12.980;2023-10-09T13:27:42;69.47;;;62.23;;
29200;SDS011;16244;51.956;12.980;2023-10-09T13:30:16;50.53;;;45.33;;
29200;SDS011;16244;51.956;12.980;2023-10-09T13:32:49;52.07;;;44.37;;
29200;SDS011;16244;51.956;12.980;2023-10-09T13:35:18;62.87;;;57.17;;
29200;SDS011;16244;51.956;12.980;2023-10-09T13:37:53;47.77;;;43.17;;
29200;SDS011;16244;51.956;12.980;2023-10-09T13:40:21;55.07;;;49.37;;
29200;SDS011;16244;51.956;12.980;2023-10-09T13:42:54;57.00;;;48.83;;
29200;SDS011;16244;51.956;12.980;2023-10-09T13:45:25;71.83;;;64.83;;
29200;SDS011;16244;51.956;12.980;2023-10-09T13:47:54;51.10;;;45.77;;
29200;SDS011;16244;51.956;12.980;2023-10-09T13:50:24;52.73;;;48.17;;
29200;SDS011;16244;51.956;12.980;2023-10-09T13:52:55;41.93;;;38.43;;
29200;SDS011;16244;51.956;12.980;2023-10-09T13:55:22;72.97;;;65.33;;
29200;SDS011;16244;51.956;12.980;2023-10-09T13:57:57;56.63;;;51.23;;
29200;SDS011;16244;51.956;12.980;2023-10-09T14:00:25;60.63;;;54.40;;
29200;SDS011;16244;51.956;12.980;2023-10-09T14:03:08;47.37;;;42.43;;
29200;SDS011;16244;51.956;12.980;2023-10-09T14:05:40;74.17;;;66.87;;
29200;SDS011;16244;51.956;12.980;2023-10-09T14:08:20;50.13;;;45.10;;
29200;SDS011;16244;51.956;12.980;2023-10-09T14:10:52;80.07;;;72.77;;
29200;SDS011;16244;51.956;12.980;2023-10-09T14:13:20;70.87;;;63.57;;
29200;SDS011;16244;51.956;12.980;2023-10-09T14:15:54;47.50;;;42.33;;
29200;SDS011;16244;51.956;12.980;2023-10-09T14:18:21;56.00;;;50.60;;
29200;SDS011;16244;51.956;12.980;2023-10-09T14:20:50;80.20;;;71.37;;
29200;SDS011;16244;51.956;12.980;2023-10-09T14:23:22;50.20;;;44.93;;
29200;SDS011;16244;51.956;12.980;2023-10-09T14:25:57;72.77;;;64.97;;
29200;SDS011;16244;51.956;12.980;2023-10-09T14:28:27;53.27;;;45.80;;
29200;SDS011;16244;51.956;12.980;2023-10-09T14:30:55;48.63;;;44.20;;
29200;SDS011;16244;51.956;12.980;2023-10-09T14:33:25;45.43;;;38.70;;
29200;SDS011;16244;51.956;12.980;2023-10-09T14:35:55;71.40;;;65.00;;
29200;SDS011;16244;51.956;12.980;2023-10-09T14:38:24;51.83;;;45.00;;
29200;SDS011;16244;51.956;12.980;2023-10-09T14:40:58;78.53;;;71.37;;
29200;SDS011;16244;51.956;12.980;2023-10-09T14:43:25;70.97;;;51.07;;
29200;SDS011;16244;51.956;12.980;2023-10-09T14:45:55;52.50;;;47.00;;
29200;SDS011;16244;51.956;12.980;2023-10-09T14:48:23;52.63;;;45.57;;